Time;durP1;ratioP1;P1;durP2;ratioP2;P2;SDS_P1;SDS_P2;PMS_P1;PMS_P2;Temp;Humidity;BMP_temperature;BMP_pressure;BME280_temperature;BME280_humidity;BME280_pressure;Samples;Min_cycle;Max_cycle;Signal;HPM_P1;HPM_P2
2022/12/23 00:01:28;;;;;;;20.80;12.57;;;;;;;9.14;100.00;100291.63;5115213;28;20034;-38
2022/12/23 00:03:56;;;;;;;21.03;12.70;;;;;;;9.28;100.00;100321.88;5115960;28;20250;-38
2022/12/23 00:06:22;;;;;;;22.30;13.07;;;;;;;9.26;100.00;100315.88;5115362;28;20027;-38
2022/12/23 00:08:47;;;;;;;25.47;14.20;;;;;;;9.29;100.00;100310.03;5115093;28;20046;-38
2022/12/23 00:11:16;;;;;;;20.13;13.25;;;;;;;9.28;100.00;100311.09;5114704;28;20119;-38
2022/12/23 00:16:25;;;;;;;20.45;14.30;;;;;;;9.28;100.00;100324.59;5115204;28;20084;-38
2022/12/23 00:18:52;;;;;;;19.63;13.88;;;;;;;9.28;100.00;100327.28;5114909;28;20027;-38
2022/12/23 00:21:17;;;;;;;20.98;13.93;;;;;;;9.27;100.00;100328.31;5115133;28;20435;-38
2022/12/23 00:23:46;;;;;;;22.47;14.73;;;;;;;9.29;100.00;100328.91;5114853;28;20023;-38
2022/12/23 00:26:20;;;;;;;22.05;14.82;;;;;;;9.15;100.00;100305.94;5114971;28;20038;-38
2022/12/23 00:28:45;;;;;;;18.77;14.75;;;;;;;9.28;100.00;100322.72;5115189;28;20019;-38
2022/12/23 00:31:12;;;;;;;21.03;15.53;;;;;;;9.23;100.00;100322.59;5114401;28;20020;-38
2022/12/23 00:33:43;;;;;;;18.92;15.38;;;;;;;9.29;100.00;100332.44;5114894;28;20111;-38
2022/12/23 00:36:19;;;;;;;20.77;15.02;;;;;;;9.28;100.00;100336.19;5114712;28;20042;-38
2022/12/23 00:44:13;;;;;;;17.30;14.80;;;;;;;9.29;100.00;100339.72;5114761;28;20046;-38
2022/12/23 00:46:38;;;;;;;22.17;15.48;;;;;;;9.29;100.00;100345.09;5114334;28;20107;-38
2022/12/23 00:51:48;;;;;;;17.10;13.95;;;;;;;9.23;100.00;100346.88;5114835;28;20084;-38
2022/12/23 00:54:13;;;;;;;20.47;14.53;;;;;;;9.28;100.00;100357.78;5112433;28;20019;-38
2022/12/23 00:56:39;;;;;;;16.75;13.85;;;;;;;9.31;100.00;100369.97;5114438;28;20444;-38
2022/12/23 00:59:05;;;;;;;17.70;13.73;;;;;;;9.32;100.00;100371.63;5114552;28;20028;-38
2022/12/23 01:07:00;;;;;;;18.08;13.90;;;;;;;9.31;100.00;100378.06;5114543;28;20134;-38
2022/12/23 01:09:26;;;;;;;17.65;14.18;;;;;;;9.33;100.00;100375.97;5113792;28;20030;-38
2022/12/23 01:11:52;;;;;;;18.35;12.95;;;;;;;9.34;100.00;100384.88;5113927;28;20422;-38
2022/12/23 01:14:18;;;;;;;17.77;13.35;;;;;;;9.32;100.00;100377.03;5114171;28;20058;-38
2022/12/23 01:16:44;;;;;;;19.98;14.15;;;;;;;9.32;100.00;100379.72;5114084;28;20075;-38
2022/12/23 01:19:09;;;;;;;18.15;14.00;;;;;;;9.26;100.00;100369.84;5113706;28;20031;-38
2022/12/23 01:21:34;;;;;;;17.80;13.37;;;;;;;9.32;100.00;100390.53;5113709;28;20031;-38
2022/12/23 01:24:00;;;;;;;17.25;13.25;;;;;;;9.32;100.00;100386.97;5113729;28;20028;-38
2022/12/23 01:26:25;;;;;;;17.90;13.32;;;;;;;9.30;100.00;100379.13;5113636;28;20464;-38
2022/12/23 01:28:55;;;;;;;16.35;13.75;;;;;;;9.29;100.00;100380.19;5113702;28;20027;-38
2022/12/23 01:31:22;;;;;;;19.92;13.38;;;;;;;9.31;100.00;100385.34;5113560;28;20080;-38
2022/12/23 01:33:48;;;;;;;19.42;13.77;;;;;;;9.30;100.00;100387.22;5114334;28;20028;-38
2022/12/23 01:36:13;;;;;;;23.10;14.00;;;;;;;9.30;100.00;100389.91;5114023;28;20514;-38
2022/12/23 01:38:39;;;;;;;21.33;13.73;;;;;;;9.31;100.00;100385.34;5113719;28;20055;-38
2022/12/23 01:41:04;;;;;;;21.92;13.55;;;;;;;9.31;100.00;100385.34;5113486;28;20023;-38
2022/12/23 01:44:02;;;;;;;21.60;14.07;;;;;;;9.32;100.00;100393.22;5113815;28;20031;-38
2022/12/23 01:46:27;;;;;;;19.23;13.05;;;;;;;9.31;100.00;100390.72;5031092;28;20180;-38
2022/12/23 01:48:54;;;;;;;20.83;13.83;;;;;;;9.30;100.00;100395.31;5030553;28;20034;-38
2022/12/23 01:51:25;;;;;;;23.27;13.80;;;;;;;9.16;100.00;100377.69;5030420;28;20497;-39
2022/12/23 01:53:56;;;;;;;18.27;13.45;;;;;;;9.30;100.00;100398.00;5030532;28;20060;-38
2022/12/23 01:56:33;;;;;;;16.17;13.23;;;;;;;9.30;100.00;100411.50;5030864;28;20386;-38
2022/12/23 01:59:06;;;;;;;18.63;13.40;;;;;;;9.28;100.00;100406.34;5030617;28;20041;-38
2022/12/23 02:04:22;;;;;;;18.23;14.38;;;;;;;9.26;100.00;100416.53;5030860;28;20112;-37
2022/12/23 02:09:36;;;;;;;18.95;14.05;;;;;;;9.29;100.00;100431.44;5035027;28;20040;-37
2022/12/23 02:12:20;;;;;;;16.90;14.18;;;;;;;9.29;100.00;100426.06;5034874;28;20034;-38
2022/12/23 02:18:20;;;;;;;17.52;13.27;;;;;;;9.30;100.00;100433.09;5034459;28;20041;-38
2022/12/23 02:21:32;;;;;;;18.27;13.73;;;;;;;9.23;100.00;100417.03;5031324;28;20067;-38
2022/12/23 02:24:34;;;;;;;17.50;14.10;;;;;;;9.30;100.00;100430.38;5054467;28;20110;-38
2022/12/23 02:27:15;;;;;;;19.83;14.20;;;;;;;9.30;100.00;100422.28;5054713;28;20139;-38
2022/12/23 02:30:09;;;;;;;16.20;13.43;;;;;;;9.28;100.00;100429.81;5054016;28;20088;-37
2022/12/23 02:33:02;;;;;;;15.55;12.52;;;;;;;9.29;100.00;100439.53;4975169;28;20043;-38
2022/12/23 02:35:42;;;;;;;16.88;12.80;;;;;;;9.27;100.00;100447.88;4975418;28;20411;-38
2022/12/23 02:38:33;;;;;;;15.90;12.55;;;;;;;9.21;100.00;100448.78;4975254;28;20639;-38
2022/12/23 02:41:25;;;;;;;16.05;12.50;;;;;;;9.29;100.00;100451.16;4975701;28;20047;-38
2022/12/23 02:44:01;;;;;;;16.38;12.85;;;;;;;9.27;100.00;100472.16;4975152;28;20042;-38
2022/12/23 02:46:33;;;;;;;15.80;12.17;;;;;;;9.24;100.00;100461.81;4975619;28;20101;-38
2022/12/23 02:49:11;;;;;;;16.45;12.35;;;;;;;9.29;100.00;100480.03;4975002;28;20038;-38
2022/12/23 02:51:43;;;;;;;14.48;12.10;;;;;;;9.27;100.00;100485.66;4975338;28;20396;-38
2022/12/23 02:54:13;;;;;;;13.00;11.50;;;;;;;9.28;100.00;100495.38;4975259;28;20039;-38
2022/12/23 02:56:44;;;;;;;15.10;11.50;;;;;;;9.27;100.00;100492.91;4975123;28;20046;-38
2022/12/23 02:59:14;;;;;;;13.60;11.07;;;;;;;9.14;100.00;100479.63;5000927;28;20040;-38
2022/12/23 03:01:40;;;;;;;13.50;11.60;;;;;;;9.25;100.00;100495.84;5054009;28;20033;-38
2022/12/23 03:04:05;;;;;;;13.75;11.20;;;;;;;9.27;100.00;100495.59;5053750;28;20083;-38
2022/12/23 03:06:37;;;;;;;15.63;11.43;;;;;;;9.27;100.00;100498.28;5053339;28;20423;-37
2022/12/23 03:09:03;;;;;;;12.15;10.95;;;;;;;9.22;100.00;100488.22;5076216;28;20372;-38
2022/12/23 03:11:46;;;;;;;15.80;11.68;;;;;;;9.24;100.00;100490.69;5116558;28;20032;-38
2022/12/23 03:14:23;;;;;;;13.95;10.75;;;;;;;9.19;100.00;100491.38;5116781;28;20111;-38
2022/12/23 03:17:30;;;;;;;13.57;11.80;;;;;;;9.27;100.00;100492.91;5115143;28;20016;-38
2022/12/23 03:20:08;;;;;;;14.98;12.07;;;;;;;9.24;100.00;100494.19;5033385;28;20030;-38
2022/12/23 03:22:53;;;;;;;17.20;12.60;;;;;;;9.19;100.00;100480.56;5033134;28;20033;-38
2022/12/23 03:25:28;;;;;;;16.10;11.95;;;;;;;9.23;100.00;100480.94;5033779;28;20099;-38
2022/12/23 03:28:19;;;;;;;15.65;12.55;;;;;;;9.24;100.00;100487.97;5033222;28;20033;-38
2022/12/23 03:30:50;;;;;;;16.83;12.60;;;;;;;9.21;100.00;100485.72;5033378;28;20114;-38
2022/12/23 03:33:23;;;;;;;18.95;12.75;;;;;;;9.22;100.00;100485.53;5033665;28;20040;-38
2022/12/23 03:35:59;;;;;;;18.55;12.57;;;;;;;9.21;100.00;100488.44;5032832;28;20072;-38
2022/12/23 03:38:25;;;;;;;15.80;12.65;;;;;;;9.18;100.00;100483.53;5032902;28;20064;-37
2022/12/23 03:40:59;;;;;;;17.08;12.73;;;;;;;9.20;100.00;100487.63;5032864;28;20136;-37
2022/12/23 03:43:30;;;;;;;16.85;12.95;;;;;;;9.22;100.00;100484.69;5033429;28;20042;-37
2022/12/23 03:45:59;;;;;;;16.70;12.43;;;;;;;9.22;100.00;100490.94;5032799;28;20533;-37
2022/12/23 03:48:31;;;;;;;18.88;12.82;;;;;;;9.16;100.00;100481.03;5032670;28;20041;-37
2022/12/23 03:51:03;;;;;;;15.10;12.20;;;;;;;9.19;100.00;100487.84;5033269;28;20045;-38
2022/12/23 03:53:33;;;;;;;14.77;12.48;;;;;;;9.21;100.00;100485.72;5032408;28;20087;-38
2022/12/23 03:56:03;;;;;;;15.65;11.90;;;;;;;9.21;100.00;100496.53;5052357;28;20059;-38
2022/12/23 03:58:44;;;;;;;15.15;12.15;;;;;;;9.23;100.00;100499.84;5115663;28;20084;-38
2022/12/23 04:01:25;;;;;;;17.25;12.35;;;;;;;9.18;100.00;100488.91;5115512;28;20020;-38
2022/12/23 04:04:17;;;;;;;14.73;11.95;;;;;;;9.21;100.00;100497.34;5115528;28;20031;-37
2022/12/23 04:06:58;;;;;;;16.05;11.85;;;;;;;9.21;100.00;100508.13;5115289;28;20023;-38
2022/12/23 04:09:26;;;;;;;14.40;11.68;;;;;;;9.19;100.00;100504.88;5115685;28;20419;-37
2022/12/23 04:11:52;;;;;;;13.02;10.50;;;;;;;9.22;100.00;100506.25;5115349;28;20341;-37
2022/12/23 04:14:19;;;;;;;12.73;11.30;;;;;;;9.22;100.00;100517.06;5115414;28;20069;-37
2022/12/23 04:16:45;;;;;;;16.58;12.25;;;;;;;9.19;100.00;100518.34;5115747;28;20028;-37
2022/12/23 04:19:10;;;;;;;14.50;11.27;;;;;;;9.11;100.00;100499.78;5114971;28;20489;-37
2022/12/23 04:21:36;;;;;;;15.27;11.83;;;;;;;9.19;100.00;100518.34;5115386;28;20032;-37
2022/12/23 04:24:01;;;;;;;20.05;12.88;;;;;;;9.19;100.00;100518.34;5115141;28;20023;-37
2022/12/23 04:26:27;;;;;;;18.03;12.60;;;;;;;9.18;100.00;100515.88;5114573;28;20030;-38
2022/12/23 04:28:52;;;;;;;19.37;13.10;;;;;;;9.19;100.00;100522.94;5114332;28;20028;-38
2022/12/23 04:31:17;;;;;;;15.80;12.30;;;;;;;9.17;100.00;100533.94;5115046;28;20107;-38
2022/12/23 04:33:43;;;;;;;20.33;14.70;;;;;;;9.19;100.00;100536.41;5115047;28;20103;-38
2022/12/23 04:36:08;;;;;;;19.77;13.57;;;;;;;9.13;100.00;100538.16;5114445;28;20027;-38
2022/12/23 04:38:33;;;;;;;18.67;13.93;;;;;;;9.16;100.00;100539.56;5114852;28;20468;-38
2022/12/23 04:40:59;;;;;;;17.77;13.10;;;;;;;9.17;100.00;100543.91;5114551;27;20459;-38
2022/12/23 04:43:24;;;;;;;16.67;13.23;;;;;;;9.17;100.00;100543.91;5114586;28;20035;-38
2022/12/23 04:45:50;;;;;;;18.20;13.77;;;;;;;9.16;100.00;100540.38;5114456;28;20028;-38
2022/12/23 04:48:16;;;;;;;21.48;13.82;;;;;;;9.16;100.00;100545.78;5114627;28;20379;-38
2022/12/23 04:50:41;;;;;;;16.98;13.07;;;;;;;9.08;100.00;100516.44;5114315;28;20038;-38
2022/12/23 04:53:07;;;;;;;19.17;14.37;;;;;;;9.12;100.00;100516.78;5114578;28;20114;-38
2022/12/23 04:55:32;;;;;;;16.13;13.17;;;;;;;9.17;100.00;100525.00;5113889;28;20024;-38
2022/12/23 04:57:57;;;;;;;17.33;13.23;;;;;;;9.15;100.00;100511.75;5114241;28;20023;-38
2022/12/23 05:00:23;;;;;;;17.87;12.77;;;;;;;9.17;100.00;100516.91;5114133;28;20460;-38
2022/12/23 05:02:48;;;;;;;19.17;14.50;;;;;;;9.16;100.00;100512.59;5114877;28;20030;-38
2022/12/23 05:05:13;;;;;;;19.77;13.83;;;;;;;9.18;100.00;100505.09;5114398;28;20563;-38
2022/12/23 05:07:39;;;;;;;16.47;13.10;;;;;;;9.03;100.00;100487.47;5114295;28;20379;-38
2022/12/23 05:10:04;;;;;;;21.07;14.17;;;;;;;9.16;100.00;100513.41;5114355;28;20024;-38
2022/12/23 05:12:30;;;;;;;21.40;14.43;;;;;;;9.14;100.00;100506.59;5113891;28;20172;-38
2022/12/23 05:14:56;;;;;;;20.00;13.32;;;;;;;9.02;100.00;100496.56;5113842;28;20036;-38
2022/12/23 05:17:21;;;;;;;19.43;14.13;;;;;;;9.14;100.00;100514.69;5113501;28;20083;-38
2022/12/23 05:19:46;;;;;;;20.70;14.63;;;;;;;9.07;100.00;100512.06;5114106;28;20502;-38
2022/12/23 05:22:12;;;;;;;20.87;14.67;;;;;;;8.99;100.00;100502.44;5113561;28;20577;-38
2022/12/23 05:24:37;;;;;;;22.80;14.20;;;;;;;9.11;100.00;100532.16;5113858;28;20027;-38
2022/12/23 05:27:02;;;;;;;19.27;14.63;;;;;;;9.09;100.00;100542.34;5114433;28;20467;-38
2022/12/23 05:29:28;;;;;;;19.92;14.60;;;;;;;9.11;100.00;100545.63;5114305;28;20050;-38
2022/12/23 05:31:53;;;;;;;24.67;15.37;;;;;;;9.10;100.00;100556.66;5113712;28;20525;-38
2022/12/23 05:34:18;;;;;;;18.73;15.00;;;;;;;9.10;100.00;100553.97;5113636;28;20501;-38
2022/12/23 05:36:44;;;;;;;25.80;16.67;;;;;;;9.09;100.00;100561.25;5113312;28;20110;-38
2022/12/23 05:39:09;;;;;;;23.23;15.40;;;;;;;9.09;100.00;100563.94;5114004;28;20151;-38
2022/12/23 05:41:34;;;;;;;23.37;15.73;;;;;;;9.08;100.00;100565.00;5113455;28;20028;-38
2022/12/23 05:44:00;;;;;;;25.93;15.23;;;;;;;8.94;100.00;100553.56;5114006;28;20020;-38
2022/12/23 05:46:25;;;;;;;24.63;16.97;;;;;;;9.08;100.00;100569.53;5113334;28;20024;-38
2022/12/23 05:48:50;;;;;;;24.13;15.60;;;;;;;9.08;100.00;100581.19;5113696;28;20023;-38
2022/12/23 05:51:16;;;;;;;22.50;15.73;;;;;;;9.07;100.00;100579.50;5113360;28;20443;-38
2022/12/23 05:53:41;;;;;;;19.33;14.70;;;;;;;9.02;100.00;100572.09;5113478;28;20023;-38
2022/12/23 05:56:07;;;;;;;21.80;15.70;;;;;;;9.04;100.00;100566.50;5113357;28;20057;-38
2022/12/23 05:58:32;;;;;;;22.88;16.63;;;;;;;9.04;100.00;100555.72;5113726;28;20019;-38
2022/12/23 06:00:57;;;;;;;24.53;16.37;;;;;;;9.02;100.00;100550.53;5113331;28;20073;-38
2022/12/23 06:03:23;;;;;;;23.03;16.47;;;;;;;8.98;100.00;100543.13;5113928;28;20027;-38
2022/12/23 06:05:51;;;;;;;25.63;17.30;;;;;;;9.03;100.00;100551.38;5112009;28;20081;-38
2022/12/23 06:08:17;;;;;;;25.55;16.25;;;;;;;8.97;100.00;100531.50;5113688;28;20261;-38
2022/12/23 06:10:43;;;;;;;24.58;17.67;;;;;;;9.03;100.00;100541.41;5112922;28;20420;-38
2022/12/23 06:13:08;;;;;;;25.02;16.85;;;;;;;8.96;100.00;100524.47;5113121;28;20028;-38
2022/12/23 06:15:33;;;;;;;24.60;17.02;;;;;;;8.97;100.00;100519.91;5113659;28;20024;-38
2022/12/23 06:17:59;;;;;;;23.73;16.93;;;;;;;8.98;100.00;100518.88;5113561;28;20020;-38
2022/12/23 06:20:24;;;;;;;24.43;16.57;;;;;;;8.94;100.00;100517.69;5113088;28;20027;-38
2022/12/23 06:22:49;;;;;;;22.57;16.97;;;;;;;9.02;100.00;100531.63;5113109;28;20019;-38
2022/12/23 06:25:15;;;;;;;24.37;17.17;;;;;;;8.99;100.00;100515.13;5112938;28;20045;-38
2022/12/23 06:27:40;;;;;;;24.27;17.27;;;;;;;9.03;100.00;100527.91;5113105;28;20452;-38
2022/12/23 06:30:06;;;;;;;26.17;17.30;;;;;;;8.99;100.00;100524.03;5113293;28;20062;-38
2022/12/23 06:32:32;;;;;;;21.80;16.23;;;;;;;9.05;100.00;100524.16;5113007;28;20323;-38
2022/12/23 06:34:57;;;;;;;26.47;16.57;;;;;;;8.98;100.00;100516.19;5113022;28;20036;-38
2022/12/23 06:37:22;;;;;;;22.33;15.17;;;;;;;9.06;100.00;100539.28;5112657;28;20141;-38
2022/12/23 06:39:48;;;;;;;23.17;16.13;;;;;;;9.04;100.00;100534.13;5114121;28;20122;-38
2022/12/23 06:42:13;;;;;;;24.60;16.13;;;;;;;9.05;100.00;100529.56;5113141;28;20024;-38
2022/12/23 06:44:38;;;;;;;19.77;14.83;;;;;;;9.03;100.00;100536.00;5113472;28;20432;-38
2022/12/23 06:47:04;;;;;;;21.93;14.30;;;;;;;8.98;100.00;100537.75;5113405;28;20277;-38
2022/12/23 06:49:29;;;;;;;20.70;14.63;;;;;;;9.05;100.00;100551.13;5113051;28;20032;-38
2022/12/23 06:51:54;;;;;;;22.57;14.47;;;;;;;9.05;100.00;100548.44;5114397;28;20050;-38
2022/12/23 06:54:20;;;;;;;16.63;12.73;;;;;;;8.99;100.00;100548.28;5117213;28;20061;-38
2022/12/23 06:56:45;;;;;;;20.93;13.27;;;;;;;9.05;100.00;100565.44;5116500;28;20073;-38
2022/12/23 06:59:10;;;;;;;17.73;12.43;;;;;;;9.05;100.00;100575.41;5116654;28;20031;-38
2022/12/23 07:01:36;;;;;;;20.17;13.03;;;;;;;9.03;100.00;100587.25;5116152;28;20114;-38
2022/12/23 07:04:01;;;;;;;18.27;12.70;;;;;;;8.98;100.00;100583.59;5116781;28;20102;-38
2022/12/23 07:06:27;;;;;;;17.00;13.30;;;;;;;9.03;100.00;100602.63;5116576;28;20036;-38
2022/12/23 07:08:52;;;;;;;16.17;13.25;;;;;;;9.03;100.00;100611.53;5117055;28;20028;-38
2022/12/23 07:11:18;;;;;;;21.70;14.50;;;;;;;9.02;100.00;100617.13;5116477;28;20042;-38
2022/12/23 07:13:44;;;;;;;18.30;14.13;;;;;;;9.00;100.00;100611.97;5116328;28;20019;-38
2022/12/23 07:16:10;;;;;;;21.13;13.90;;;;;;;8.85;100.00;100579.19;5116155;28;20070;-38
2022/12/23 07:18:35;;;;;;;22.30;14.63;;;;;;;8.99;100.00;100610.34;5116514;28;20051;-38
2022/12/23 07:21:01;;;;;;;22.95;15.07;;;;;;;8.98;100.00;100595.19;5115843;28;20028;-38
2022/12/23 07:23:27;;;;;;;;;;;;;;;9.06;100.00;100590.53;5116931;28;20043;-38
2022/12/23 07:25:52;;;;;;;23.85;16.38;;;;;;;9.00;100.00;100589.56;5115899;28;19907;-38
2022/12/23 07:28:18;;;;;;;19.17;15.00;;;;;;;9.01;100.00;100596.59;5115834;27;20486;-38
2022/12/23 07:30:43;;;;;;;23.93;16.43;;;;;;;8.98;100.00;100584.41;5115767;28;20024;-38
2022/12/23 07:33:08;;;;;;;27.63;17.50;;;;;;;9.02;100.00;100595.56;5115790;28;20027;-38
2022/12/23 07:35:34;;;;;;;27.83;17.50;;;;;;;8.99;100.00;100583.34;5115861;28;20031;-38
2022/12/23 07:37:59;;;;;;;23.93;18.13;;;;;;;9.02;100.00;100580.19;5115460;28;20043;-38
2022/12/23 07:40:25;;;;;;;25.70;19.43;;;;;;;8.93;100.00;100565.41;5115741;28;20372;-38
2022/12/23 07:42:56;;;;;;;25.83;18.15;;;;;;;8.98;100.00;100575.50;5116286;28;20733;-38
2022/12/23 07:45:22;;;;;;;28.27;18.98;;;;;;;8.99;100.00;100579.84;5115291;28;20340;-38
2022/12/23 07:47:52;;;;;;;33.00;21.00;;;;;;;9.00;100.00;100582.31;5115771;28;20035;-38
2022/12/23 07:50:17;;;;;;;32.97;21.13;;;;;;;9.02;100.00;100588.28;5116004;28;20036;-38
2022/12/23 07:52:42;;;;;;;30.27;21.07;;;;;;;9.01;100.00;100575.84;5115691;28;20113;-38
2022/12/23 07:55:08;;;;;;;31.03;22.20;;;;;;;9.01;100.00;100573.16;5115800;28;20019;-38
2022/12/23 07:57:37;;;;;;;29.98;22.08;;;;;;;9.01;100.00;100578.56;5115183;28;20114;-38
2022/12/23 08:00:12;;;;;;;35.22;21.75;;;;;;;9.00;100.00;100576.09;5115207;28;20157;-38
2022/12/23 08:02:38;;;;;;;30.13;21.17;;;;;;;8.88;100.00;100559.00;5115101;28;20027;-38
2022/12/23 08:05:04;;;;;;;30.27;21.55;;;;;;;8.98;100.00;100579.03;5115639;28;20042;-38
2022/12/23 08:07:29;;;;;;;28.92;21.50;;;;;;;8.98;100.00;100576.31;5114738;28;20043;-38
2022/12/23 08:09:55;;;;;;;27.70;20.37;;;;;;;8.94;100.00;100567.03;5115382;28;20015;-38
2022/12/23 08:12:20;;;;;;;34.00;24.90;;;;;;;8.96;100.00;100566.78;5115015;28;20424;-38
2022/12/23 08:14:47;;;;;;;30.60;22.47;;;;;;;8.97;100.00;100571.97;5115058;28;20118;-38
2022/12/23 08:17:12;;;;;;;33.10;26.45;;;;;;;8.99;100.00;100569.88;5114845;28;20028;-38
2022/12/23 08:19:38;;;;;;;35.73;26.50;;;;;;;8.99;100.00;100566.34;5115571;28;20023;-38
2022/12/23 08:22:03;;;;;;;39.80;29.00;;;;;;;8.92;100.00;100544.84;5115427;28;20658;-38
2022/12/23 08:24:28;;;;;;;41.30;28.10;;;;;;;9.00;100.00;100555.34;5114491;28;20106;-38
2022/12/23 08:26:53;;;;;;;37.83;27.30;;;;;;;9.01;100.00;100575.03;5115540;28;20039;-38
2022/12/23 08:29:19;;;;;;;39.87;27.33;;;;;;;8.99;100.00;100561.78;5114807;28;20033;-38
2022/12/23 08:31:44;;;;;;;42.88;29.35;;;;;;;8.99;100.00;100551.00;5115157;28;20024;-38
2022/12/23 08:34:10;;;;;;;41.60;28.57;;;;;;;9.01;100.00;100559.66;5114915;28;20034;-38
2022/12/23 08:36:35;;;;;;;46.87;31.17;;;;;;;9.01;100.00;100556.16;5114321;28;20066;-38
2022/12/23 08:39:05;;;;;;;47.72;31.25;;;;;;;8.95;100.00;100554.38;5114218;28;20050;-38
2022/12/23 08:41:34;;;;;;;43.28;29.60;;;;;;;8.91;100.00;100548.59;5114216;28;20041;-38
2022/12/23 08:44:00;;;;;;;43.60;30.33;;;;;;;8.95;100.00;100552.50;5114962;28;20028;-38
2022/12/23 08:46:26;;;;;;;41.00;29.83;;;;;;;8.98;100.00;100560.13;5115025;28;20073;-38
2022/12/23 08:48:52;;;;;;;39.95;29.08;;;;;;;9.00;100.00;100555.34;5114509;28;20524;-38
2022/12/23 08:51:21;;;;;;;;;;;;;;;9.05;100.00;100549.25;5114714;28;20035;-38
2022/12/23 08:53:47;;;;;;;38.97;27.20;;;;;;;8.98;100.00;100546.66;5114081;28;20379;-38
2022/12/23 08:56:18;;;;;;;38.22;27.13;;;;;;;8.92;100.00;100534.06;5114536;28;20066;-38
2022/12/23 08:58:45;;;;;;;35.45;25.58;;;;;;;8.97;100.00;100528.81;5114896;28;20066;-38
2022/12/23 09:01:14;;;;;;;35.05;25.17;;;;;;;8.99;100.00;100524.03;5114050;28;20107;-37
2022/12/23 09:03:41;;;;;;;37.05;26.00;;;;;;;9.01;100.00;100526.47;5114775;28;20076;-37
2022/12/23 09:06:09;;;;;;;39.40;26.13;;;;;;;8.95;100.00;100522.84;5113788;28;20063;-37
2022/12/23 09:08:35;;;;;;;36.65;26.33;;;;;;;8.99;100.00;100523.22;5113732;28;20467;-37
2022/12/23 09:11:01;;;;;;;39.58;25.83;;;;;;;8.98;100.00;100525.09;5113865;28;20042;-37
2022/12/23 09:13:27;;;;;;;35.30;23.10;;;;;;;8.96;100.00;100510.16;5113988;28;20072;-37
2022/12/23 09:15:52;;;;;;;40.33;24.50;;;;;;;8.99;100.00;100518.63;5112920;28;20141;-37
2022/12/23 09:18:17;;;;;;;33.80;24.47;;;;;;;8.95;100.00;100509.34;5114454;28;20066;-37
2022/12/23 09:20:43;;;;;;;35.93;24.73;;;;;;;8.97;100.00;100509.09;5114089;28;20039;-37
2022/12/23 09:23:08;;;;;;;30.83;22.57;;;;;;;8.95;100.00;100500.44;5114046;28;20405;-37
2022/12/23 09:25:35;;;;;;;31.47;22.50;;;;;;;8.95;100.00;100495.88;5113416;28;20077;-37
2022/12/23 09:28:01;;;;;;;31.98;20.60;;;;;;;8.96;100.00;100489.41;5113879;28;20055;-37
2022/12/23 09:30:26;;;;;;;32.40;20.15;;;;;;;8.95;100.00;100490.47;5113553;28;20452;-37
2022/12/23 09:32:51;;;;;;;24.90;18.08;;;;;;;8.91;100.00;100473.09;5113942;28;20417;-37
2022/12/23 09:35:17;;;;;;;27.80;18.90;;;;;;;8.98;100.00;100483.81;5113879;28;20020;-37
2022/12/23 09:37:42;;;;;;;30.37;19.77;;;;;;;8.98;100.00;100483.81;5113417;28;20293;-37
2022/12/23 09:40:13;;;;;;;28.93;18.43;;;;;;;8.85;100.00;100451.63;5114200;28;20053;-37
2022/12/23 09:42:56;;;;;;;28.77;18.42;;;;;;;8.95;100.00;100471.59;5113307;28;20031;-37
2022/12/23 09:45:27;;;;;;;25.52;16.35;;;;;;;8.97;100.00;100477.56;5113428;28;20057;-37
2022/12/23 09:47:54;;;;;;;20.00;14.40;;;;;;;8.98;100.00;100468.44;5112974;28;20062;-37
2022/12/23 09:50:27;;;;;;;24.48;14.93;;;;;;;8.96;100.00;100470.53;5113347;28;20131;-37
2022/12/23 09:53:10;;;;;;;24.52;15.77;;;;;;;8.97;100.00;100469.47;5113494;28;20100;-37
2022/12/23 09:55:39;;;;;;;22.73;14.90;;;;;;;8.98;100.00;100456.84;5113329;28;20416;-37
2022/12/23 09:58:18;;;;;;;24.30;15.70;;;;;;;8.96;100.00;100451.66;5113254;28;20073;-36
2022/12/23 10:01:02;;;;;;;20.90;14.32;;;;;;;8.96;100.00;100451.66;5113254;28;20031;-36
2022/12/23 10:03:37;;;;;;;23.45;14.85;;;;;;;8.96;100.00;100453.53;5113271;28;20032;-36
2022/12/23 10:06:13;;;;;;;23.90;15.73;;;;;;;8.96;100.00;100459.75;5113677;28;20037;-37
2022/12/23 10:08:43;;;;;;;21.37;14.50;;;;;;;8.96;100.00;100459.75;5113444;28;20031;-37
2022/12/23 10:11:17;;;;;;;18.80;13.07;;;;;;;8.95;100.00;100463.50;5113155;28;20092;-37
2022/12/23 10:13:48;;;;;;;18.35;13.23;;;;;;;8.97;100.00;100456.00;5113398;28;20042;-37
2022/12/23 10:16:17;;;;;;;22.63;12.70;;;;;;;8.96;100.00;100443.56;5113896;28;20149;-37
2022/12/23 10:19:00;;;;;;;18.98;12.18;;;;;;;8.97;100.00;100433.59;5112873;28;20028;-37
2022/12/23 10:21:32;;;;;;;17.25;11.25;;;;;;;8.88;100.00;100418.78;5113364;28;20028;-37
2022/12/23 10:24:03;;;;;;;16.20;11.77;;;;;;;8.89;100.00;100420.47;5112792;28;20032;-37
2022/12/23 10:26:50;;;;;;;18.13;11.88;;;;;;;8.96;100.00;100430.09;5114303;28;20039;-37
2022/12/23 10:29:19;;;;;;;18.58;11.52;;;;;;;8.95;100.00;100425.75;5117676;28;20035;-37
2022/12/23 10:32:06;;;;;;;16.13;10.52;;;;;;;8.90;100.00;100406.75;5117042;28;20031;-37
2022/12/23 10:34:51;;;;;;;15.98;10.13;;;;;;;8.96;100.00;100408.50;5116931;28;20361;-37
2022/12/23 10:37:29;;;;;;;16.25;11.15;;;;;;;8.90;100.00;100400.53;5103042;28;20205;-37
2022/12/23 10:40:19;;;;;;;16.88;10.43;;;;;;;8.90;100.00;100397.84;5116423;28;20050;-37
2022/12/23 10:43:21;;;;;;;19.17;11.05;;;;;;;8.98;100.00;100406.41;5116488;28;20033;-37
2022/12/23 10:46:11;;;;;;;17.92;11.32;;;;;;;8.97;100.00;100383.19;5112035;28;20031;-37
2022/12/23 10:48:55;;;;;;;17.67;10.75;;;;;;;8.94;100.00;100370.19;5117223;28;20118;-37
2022/12/23 10:51:37;;;;;;;14.48;10.63;;;;;;;9.00;100.00;100385.41;5117163;28;20047;-38
2022/12/23 10:54:11;;;;;;;14.90;10.38;;;;;;;9.02;100.00;100375.22;5117367;28;20402;-37
2022/12/23 10:56:37;;;;;;;17.27;10.93;;;;;;;8.98;100.00;100357.88;5116739;28;20065;-37
2022/12/23 10:59:06;;;;;;;14.65;10.60;;;;;;;9.04;100.00;100358.81;5116473;28;20081;-37
2022/12/23 11:01:31;;;;;;;15.98;9.48;;;;;;;9.03;100.00;100351.78;5116188;28;20024;-37
2022/12/23 11:04:10;;;;;;;15.80;10.40;;;;;;;9.05;100.00;100349.66;5116958;28;20398;-37
2022/12/23 11:06:49;;;;;;;15.85;9.90;;;;;;;9.06;100.00;100335.13;5116479;28;20180;-37
2022/12/23 11:09:23;;;;;;;17.80;9.95;;;;;;;9.07;100.00;100335.94;5116864;28;20515;-38
2022/12/23 11:12:03;;;;;;;13.48;10.18;;;;;;;9.09;100.00;100331.97;5115976;28;20039;-37
2022/12/23 11:14:38;;;;;;;18.77;10.32;;;;;;;9.08;100.00;100338.41;5116284;28;20020;-37
2022/12/23 11:17:16;;;;;;;15.32;11.05;;;;;;;9.03;100.00;100319.41;5116381;28;20420;-36
2022/12/23 11:19:42;;;;;;;13.38;9.90;;;;;;;9.03;100.00;100322.94;5116053;28;20079;-37
2022/12/23 11:22:23;;;;;;;16.27;9.53;;;;;;;9.07;100.00;100331.34;5116198;27;20035;-36
2022/12/23 11:24:49;;;;;;;12.15;8.90;;;;;;;9.07;100.00;100330.53;5116898;28;20023;-37
2022/12/23 11:27:15;;;;;;;13.88;9.45;;;;;;;8.98;100.00;100314.72;5116755;28;20050;-37
2022/12/23 11:29:48;;;;;;;12.05;9.25;;;;;;;9.05;100.00;100321.88;5116155;28;20119;-37
2022/12/23 11:32:21;;;;;;;15.02;8.75;;;;;;;8.90;100.00;100288.09;5115857;28;20352;-37
2022/12/23 11:34:47;;;;;;;13.02;9.73;;;;;;;8.96;100.00;100286.34;5115894;28;20055;-37
2022/12/23 11:37:23;;;;;;;13.15;9.70;;;;;;;9.03;100.00;100295.97;5115413;28;20034;-37
2022/12/23 11:39:48;;;;;;;15.65;10.27;;;;;;;9.00;100.00;100296.41;5115776;28;20067;-37
2022/12/23 11:42:18;;;;;;;12.30;8.93;;;;;;;9.02;100.00;100293.47;5115498;28;20139;-37
2022/12/23 11:44:50;;;;;;;16.35;8.85;;;;;;;8.89;100.00;100264.06;5115868;28;20062;-37
2022/12/23 11:47:21;;;;;;;11.85;8.05;;;;;;;9.02;100.00;100283.50;5115643;28;20023;-37